This is the latest recevied weather packets stored in our database for station/object EB1GOD-1. If no packets are shown the sender has not sent any weather packets the latest 10 day(s).
| Time | Temp. | Humidity | Pressure | Rain* | Wind** | Luminosity | Snow |
|---|---|---|---|---|---|---|---|
| 1778184293 | 15.56° C | 81% | 1147.5 hPa | - | - | - | - |
| 1778183393 | 15.56° C | 82% | 1147.3 hPa | - | - | - | - |
| 1778182493 | 15.56° C | 81% | 1147.2 hPa | - | - | - | - |
| 1778181600 | 15.56° C | 82% | 1147.5 hPa | - | - | - | - |
| 1778180693 | 16.11° C | 78% | 1147.8 hPa | - | - | - | - |
| 1778179793 | 16.67° C | 72% | 1147.9 hPa | - | - | - | - |
| 1778178892 | 16.67° C | 69% | 1147.8 hPa | - | - | - | - |
| 1778177992 | 16.11° C | 70% | 1148 hPa | - | - | - | - |
| 1778177092 | 16.67° C | 70% | 1148.1 hPa | - | - | - | - |
| 1778176192 | 16.11° C | 70% | 1148.2 hPa | - | - | - | - |
| 1778175292 | 16.67° C | 70% | 1148.2 hPa | - | - | - | - |
| 1778174392 | 16.67° C | 69% | 1148.2 hPa | - | - | - | - |
| 1778173492 | 16.67° C | 69% | 1148.1 hPa | - | - | - | - |
| 1778172592 | 16.67° C | 70% | 1147.7 hPa | - | - | - | - |
| 1778171692 | 16.67° C | 70% | 1147.6 hPa | - | - | - | - |
| 1778170792 | 17.22° C | 68% | 1147.6 hPa | - | - | - | - |
| 1778169892 | 17.78° C | 67% | 1147.2 hPa | - | - | - | - |
| 1778168992 | 16.67° C | 70% | 1147.2 hPa | - | - | - | - |
| 1778168092 | 16.67° C | 71% | 1147.2 hPa | - | - | - | - |
| 1778167191 | 16.67° C | 72% | 1147 hPa | - | - | - | - |
| 1778166291 | 17.22° C | 72% | 1146.8 hPa | - | - | - | - |
| 1778165391 | 17.22° C | 73% | 1146.7 hPa | - | - | - | - |
| 1778164491 | 17.22° C | 75% | 1147 hPa | - | - | - | - |
| 1778163591 | 17.22° C | 71% | 1146.6 hPa | - | - | - | - |
| 1778162691 | 16.11° C | 72% | 1147 hPa | - | - | - | - |
* Rain since midnight (hover to see other rain measurements)
** Current wind speed in m/s (hover to see current wind gust speed)